Big Bear Station Historical Data
Daily Summary for June 30, 2017 Units:  English    Metric   Both
Next Day »
Daily Weekly Monthly Yearly Custom
  High: Low: Average:
Temperature: 89.2 °F 46.0 °F 66.9 °F
Dew Point: 47.7 °F 25.3 °F 37.3 °F
Humidity: 72% 11% 39%
Wind Speed: 6.3mph 0.0mph 1.5mph
Wind Gust: -999.0mph - -
Wind- - WSW
Pressure: 30.24 in 30.20 in -
Precipitation: 0.00 in    
Historical Graphs
 
 
Tabular Data for June 30, 2017
Time Temperature Dew Point Pressure Wind Wind Speed Wind Gust Humidity Rainfall Rate (Hourly)
00:11 54.1 °F 35.4 °F 30.23 in Calm   -999.0 mph 49% 0 in
00:27 53.4 °F 34.7 °F 30.22 in Calm   -999.0 mph 49% 0 in
00:42 53.2 °F 35.0 °F 30.22 in Calm   -999.0 mph 50% 0 in
00:57 52.3 °F 34.7 °F 30.22 in Calm   -999.0 mph 51% 0 in
01:12 51.8 °F 33.7 °F 30.22 in Calm   -999.0 mph 50% 0 in
01:28 51.4 °F 33.4 °F 30.21 in Calm   -999.0 mph 50% 0 in
01:43 51.1 °F 34.6 °F 30.21 in Calm   -999.0 mph 53% 0 in
01:58 50.7 °F 34.2 °F 30.21 in Calm   -999.0 mph 53% 0 in
02:13 50.4 °F 32.9 °F 30.21 in Calm   -999.0 mph 51% 0 in
02:28 50.2 °F 32.8 °F 30.21 in Calm   -999.0 mph 51% 0 in
02:44 49.8 °F 31.9 °F 30.21 in Calm   -999.0 mph 50% 0 in
02:59 49.5 °F 32.1 °F 30.21 in Calm   -999.0 mph 51% 0 in
03:14 49.1 °F 33.2 °F 30.21 in Calm   -999.0 mph 54% 0 in
03:29 48.7 °F 33.3 °F 30.21 in Calm   -999.0 mph 55% 0 in
03:44 48.6 °F 33.2 °F 30.20 in Calm   -999.0 mph 55% 0 in
04:00 48.2 °F 32.8 °F 30.21 in Calm   -999.0 mph 55% 0 in
04:15 48.0 °F 33.0 °F 30.21 in Calm   -999.0 mph 56% 0 in
04:30 47.5 °F 33.9 °F 30.21 in Calm   -999.0 mph 59% 0 in
04:45 47.3 °F 34.1 °F 30.21 in Calm   -999.0 mph 60% 0 in
05:00 46.9 °F 35.0 °F 30.21 in Calm   -999.0 mph 63% 0 in
05:16 46.9 °F 34.6 °F 30.22 in Calm   -999.0 mph 62% 0 in
05:31 46.8 °F 34.9 °F 30.22 in Calm   -999.0 mph 63% 0 in
05:46 46.4 °F 35.3 °F 30.22 in Calm   -999.0 mph 65% 0 in
06:01 46.4 °F 34.9 °F 30.22 in Calm   -999.0 mph 64% 0 in
06:16 46.0 °F 34.9 °F 30.22 in Calm   -999.0 mph 65% 0 in
06:32 46.4 °F 35.3 °F 30.23 in Calm   -999.0 mph 65% 0 in
06:47 47.1 °F 36.7 °F 30.23 in Calm   -999.0 mph 67% 0 in
07:02 47.5 °F 38.2 °F 30.23 in Calm   -999.0 mph 70% 0 in
07:17 48.2 °F 39.2 °F 30.23 in Calm   -999.0 mph 71% 0 in
07:33 49.5 °F 40.1 °F 30.23 in Calm   -999.0 mph 70% 0 in
07:48 50.4 °F 41.7 °F 30.23 in Calm   -999.0 mph 72% 0 in
08:03 52.3 °F 43.5 °F 30.23 in Calm   -999.0 mph 72% 0 in
08:18 54.7 °F 45.9 °F 30.24 in WNW 1.7 mph -999.0 mph 72% 0 in
08:33 56.8 °F 44.8 °F 30.24 in Calm   -999.0 mph 64% 0 in
08:49 59.2 °F 44.9 °F 30.24 in Calm   -999.0 mph 59% 0 in
09:04 61.9 °F 45.1 °F 30.23 in WNW 2.2 mph -999.0 mph 54% 0 in
09:19 64.2 °F 41.8 °F 30.23 in NNW 2.2 mph -999.0 mph 44% 0 in
09:34 66.9 °F 44.3 °F 30.23 in WNW 2.7 mph -999.0 mph 44% 0 in
09:49 71.8 °F 32.0 °F 30.23 in NNW 5.8 mph -999.0 mph 23% 0 in
10:05 74.5 °F 30.8 °F 30.23 in NW 2.7 mph -999.0 mph 20% 0 in
10:20 76.5 °F 31.2 °F 30.23 in NNE 3.2 mph -999.0 mph 19% 0 in
10:35 77.4 °F 31.9 °F 30.23 in NW 4.7 mph -999.0 mph 19% 0 in
10:51 78.4 °F 25.3 °F 30.23 in NW 4.7 mph -999.0 mph 14% 0 in
11:06 79.7 °F 28.0 °F 30.23 in NE 2.2 mph -999.0 mph 15% 0 in
11:21 81.3 °F 29.2 °F 30.23 in ESE 1.7 mph -999.0 mph 15% 0 in
11:36 82.9 °F 28.8 °F 30.23 in WNW 6.3 mph -999.0 mph 14% 0 in
11:51 84.0 °F 25.9 °F 30.23 in West 2.2 mph -999.0 mph 12% 0 in
12:07 84.9 °F 26.6 °F 30.23 in NE 4.7 mph -999.0 mph 12% 0 in
12:22 86.7 °F 25.9 °F 30.23 in WNW 3.2 mph -999.0 mph 11% 0 in
12:37 87.1 °F 28.3 °F 30.23 in WNW 4.7 mph -999.0 mph 12% 0 in
12:53 88.2 °F 29.2 °F 30.23 in NNW 4.2 mph -999.0 mph 12% 0 in
13:08 88.5 °F 27.3 °F 30.23 in WNW 5.8 mph -999.0 mph 11% 0 in
13:23 87.6 °F 30.7 °F 30.23 in NW 4.2 mph -999.0 mph 13% 0 in
13:38 85.5 °F 38.5 °F 30.22 in NW 5.8 mph -999.0 mph 19% 0 in
13:54 86.7 °F 47.7 °F 30.22 in NE 2.7 mph -999.0 mph 26% 0 in
14:09 87.3 °F 45.0 °F 30.22 in WNW 4.2 mph -999.0 mph 23% 0 in
14:25 86.5 °F 39.4 °F 30.22 in NW 5.3 mph -999.0 mph 19% 0 in
14:40 87.1 °F 45.9 °F 30.21 in NNW 4.2 mph -999.0 mph 24% 0 in
14:56 86.7 °F 45.6 °F 30.21 in WNW 3.7 mph -999.0 mph 24% 0 in
15:11 85.8 °F 44.9 °F 30.21 in North 4.7 mph -999.0 mph 24% 0 in
15:26 84.7 °F 41.7 °F 30.21 in NNE 2.7 mph -999.0 mph 22% 0 in
15:41 85.5 °F 44.6 °F 30.21 in North 3.7 mph -999.0 mph 24% 0 in
15:57 86.4 °F 44.2 °F 30.21 in NNE 3.7 mph -999.0 mph 23% 0 in
16:12 86.4 °F 41.9 °F 30.21 in NW 3.7 mph -999.0 mph 21% 0 in
16:27 85.6 °F 45.8 °F 30.21 in WNW 3.7 mph -999.0 mph 25% 0 in
16:42 87.1 °F 44.8 °F 30.21 in NNW 2.7 mph -999.0 mph 23% 0 in
16:57 87.4 °F 41.4 °F 30.20 in NNW 3.2 mph -999.0 mph 20% 0 in
17:13 88.0 °F 44.4 °F 30.20 in North 3.2 mph -999.0 mph 22% 0 in
17:28 89.2 °F 41.6 °F 30.20 in NNE 2.2 mph -999.0 mph 19% 0 in
17:43 88.3 °F 44.7 °F 30.20 in North 2.2 mph -999.0 mph 22% 0 in
17:58 87.8 °F 47.6 °F 30.20 in NW 3.7 mph -999.0 mph 25% 0 in
18:13 86.5 °F 47.6 °F 30.20 in WNW 4.7 mph -999.0 mph 26% 0 in
18:29 84.9 °F 45.2 °F 30.20 in NNW 3.2 mph -999.0 mph 25% 0 in
18:44 83.3 °F 44.8 °F 30.21 in Calm   -999.0 mph 26% 0 in
18:59 82.9 °F 43.5 °F 30.21 in Calm   -999.0 mph 25% 0 in
19:14 81.7 °F 42.5 °F 30.21 in Calm   -999.0 mph 25% 0 in
19:29 78.1 °F 42.3 °F 30.21 in Calm   -999.0 mph 28% 0 in
19:45 74.5 °F 41.9 °F 30.21 in Calm   -999.0 mph 31% 0 in
20:00 72.1 °F 39.8 °F 30.21 in Calm   -999.0 mph 31% 0 in
20:15 69.3 °F 40.5 °F 30.21 in Calm   -999.0 mph 35% 0 in
20:30 67.3 °F 40.1 °F 30.21 in Calm   -999.0 mph 37% 0 in
20:46 65.5 °F 39.2 °F 30.21 in Calm   -999.0 mph 38% 0 in
21:01 64.2 °F 38.7 °F 30.22 in Calm   -999.0 mph 39% 0 in
21:16 63.3 °F 39.2 °F 30.22 in Calm   -999.0 mph 41% 0 in
21:31 61.5 °F 37.6 °F 30.22 in Calm   -999.0 mph 41% 0 in
21:46 60.4 °F 36.0 °F 30.22 in Calm   -999.0 mph 40% 0 in
22:02 59.9 °F 35.5 °F 30.22 in Calm   -999.0 mph 40% 0 in
22:17 59.4 °F 33.8 °F 30.22 in Calm   -999.0 mph 38% 0 in
22:32 58.6 °F 34.3 °F 30.23 in Calm   -999.0 mph 40% 0 in
22:48 58.3 °F 34.1 °F 30.23 in South 1.7 mph -999.0 mph 40% 0 in
23:03 57.4 °F 33.3 °F 30.23 in Calm   -999.0 mph 40% 0 in
23:18 56.8 °F 33.9 °F 30.23 in Calm   -999.0 mph 42% 0 in
23:33 56.3 °F 34.7 °F 30.23 in Calm   -999.0 mph 44% 0 in
23:48 56.1 °F 35.0 °F 30.22 in Calm   -999.0 mph 45% 0 in
Big Bear CA Weather